Terminal Aerodrome Forecast
Issued by NWS

Home | Current Version | Previous Version | Text Only | Print | Product List | Glossary Off
Versions: 1 2 3 4 5 6 7 8 9 10 11 12 13 14 15 16 17 18 19 20 21 22 23 24 25 26

000
FTUS45 KGGW 220500
TAFOLF
TAF
KOLF 220520Z 2206/2306 VRB06KT P6SM -SHRA BKN050 OVC060
     FM221200 05009KT P6SM BKN045 OVC060
     FM221800 07012KT P6SM VCSH BKN029 OVC060=

USA.gov is the U.S. government's official web portal to all federal, state and local government web resources and services.